Time;durP1;ratioP1;P1;durP2;ratioP2;P2;SDS_P1;SDS_P2;PMS_P1;PMS_P2;Temp;Humidity;BMP_temperature;BMP_pressure;BME280_temperature;BME280_humidity;BME280_pressure;Samples;Min_cycle;Max_cycle;Signal;HPM_P1;HPM_P2
2021/08/10 00:01:56;;;;;;;9.93;6.25;;;;;;;19.76;57.90;93799.31;5092883;28;20081;-60
2021/08/10 00:04:22;;;;;;;7.43;6.32;;;;;;;19.73;57.97;93797.72;5092568;28;20031;-60
2021/08/10 00:06:48;;;;;;;7.40;6.65;;;;;;;19.67;58.22;93786.84;5092775;28;20024;-63
2021/08/10 00:09:13;;;;;;;7.45;6.57;;;;;;;19.63;58.38;93787.31;5092099;28;20047;-63
2021/08/10 00:11:38;;;;;;;8.43;6.70;;;;;;;19.61;58.46;93786.44;5092470;28;20020;-63
2021/08/10 00:14:04;;;;;;;8.02;6.10;;;;;;;19.56;58.56;93791.03;5092247;28;20036;-63
2021/08/10 00:16:29;;;;;;;8.23;6.30;;;;;;;19.55;59.01;93789.59;5092378;28;20032;-64
2021/08/10 00:18:55;;;;;;;8.20;6.20;;;;;;;19.46;58.74;93801.59;5092316;28;20032;-64
2021/08/10 00:21:20;;;;;;;7.22;6.53;;;;;;;19.42;58.85;93800.56;5104864;28;20030;-64
2021/08/10 00:23:46;;;;;;;9.10;6.55;;;;;;;19.36;59.20;93791.78;5110571;28;20034;-64
2021/08/10 00:26:14;;;;;;;6.90;6.30;;;;;;;19.18;59.00;93780.06;5091820;28;20037;-64
2021/08/10 00:28:40;;;;;;;11.57;7.40;;;;;;;19.09;59.69;93786.44;5090987;28;20020;-63
2021/08/10 00:31:05;;;;;;;7.07;6.40;;;;;;;18.99;60.20;93794.16;5092357;28;20039;-60
2021/08/10 00:33:31;;;;;;;7.20;6.50;;;;;;;19.03;60.05;93797.22;5092338;28;20550;-62
2021/08/10 00:35:56;;;;;;;7.68;6.97;;;;;;;19.09;59.60;93806.03;5092272;28;20032;-62
2021/08/10 00:38:21;;;;;;;8.13;6.22;;;;;;;19.01;60.09;93799.16;5092911;28;20413;-63
2021/08/10 00:40:48;;;;;;;7.30;6.63;;;;;;;18.98;60.10;93800.31;5112604;28;20024;-63
2021/08/10 00:43:28;;;;;;;9.30;6.57;;;;;;;19.00;59.89;93798.41;5111087;28;20076;-62
2021/08/10 00:45:54;;;;;;;8.00;7.07;;;;;;;18.99;60.26;93808.16;5111973;28;20030;-63
2021/08/10 00:48:20;;;;;;;7.38;6.68;;;;;;;19.00;60.12;93804.00;5112107;28;20032;-59
2021/08/10 00:50:46;;;;;;;10.05;7.05;;;;;;;18.99;59.90;93804.59;5112251;28;20073;-60
2021/08/10 00:53:11;;;;;;;7.60;6.30;;;;;;;18.89;59.64;93799.03;5111137;28;20458;-60
2021/08/10 00:55:37;;;;;;;7.55;6.25;;;;;;;18.86;60.53;93805.84;5112116;28;20081;-60
2021/08/10 00:58:02;;;;;;;9.43;6.47;;;;;;;18.87;60.39;93798.91;5112073;28;20507;-60
2021/08/10 01:00:28;;;;;;;9.98;7.13;;;;;;;18.77;60.77;93789.81;5110736;28;20020;-60
2021/08/10 01:02:53;;;;;;;9.32;6.63;;;;;;;18.82;61.12;93791.56;5112121;28;20020;-60
2021/08/10 01:05:19;;;;;;;8.13;6.38;;;;;;;18.83;60.64;93793.78;5112147;28;20475;-60
2021/08/10 01:07:53;;;;;;;8.02;6.85;;;;;;;18.75;60.40;93793.19;5110725;28;20039;-60
2021/08/10 01:10:31;;;;;;;13.00;6.88;;;;;;;18.73;60.59;93789.56;5109216;28;20028;-60
2021/08/10 01:13:05;;;;;;;11.50;6.25;;;;;;;18.62;61.28;93792.97;5110530;28;20389;-60
2021/08/10 01:15:48;;;;;;;9.00;6.88;;;;;;;18.78;60.72;93791.28;5111902;28;20668;-60
2021/08/10 01:18:15;;;;;;;7.72;6.47;;;;;;;18.86;60.69;93792.56;5092301;28;20032;-60
2021/08/10 01:21:08;;;;;;;8.40;6.05;;;;;;;18.81;60.98;93790.09;5089168;28;20501;-60
2021/08/10 01:23:34;;;;;;;7.13;6.28;;;;;;;18.87;60.90;93796.09;5091000;28;20055;-60
2021/08/10 01:26:24;;;;;;;7.13;6.20;;;;;;;18.96;60.06;93791.78;5090557;28;20507;-61
2021/08/10 01:29:19;;;;;;;6.57;6.00;;;;;;;18.92;59.90;93772.69;5090972;28;20035;-62
2021/08/10 01:31:45;;;;;;;6.63;6.05;;;;;;;18.99;60.08;93780.16;5091229;28;20077;-61
2021/08/10 01:34:17;;;;;;;7.82;6.32;;;;;;;18.98;59.86;93780.75;5091133;28;20024;-60
2021/08/10 01:36:44;;;;;;;6.63;5.97;;;;;;;18.99;59.83;93785.75;5090855;28;20028;-60
2021/08/10 01:39:11;;;;;;;7.22;6.63;;;;;;;18.94;59.90;93795.19;5089458;28;20031;-61
2021/08/10 01:41:37;;;;;;;7.88;7.05;;;;;;;18.87;59.90;93785.66;5089653;28;20020;-62
2021/08/10 01:44:04;;;;;;;10.77;6.63;;;;;;;18.93;60.12;93786.06;5089488;28;20107;-62
2021/08/10 01:46:30;;;;;;;8.55;6.28;;;;;;;18.96;60.05;93789.75;5089508;28;20107;-62
2021/08/10 01:48:57;;;;;;;7.60;6.25;;;;;;;18.93;60.09;93783.25;5089485;28;20527;-62
2021/08/10 01:51:24;;;;;;;7.88;5.93;;;;;;;18.88;60.10;93780.81;5089786;28;20028;-63
2021/08/10 01:53:51;;;;;;;6.60;6.00;;;;;;;18.86;60.27;93781.38;5090969;28;20509;-62
2021/08/10 01:56:17;;;;;;;8.40;6.40;;;;;;;18.76;60.67;93783.50;5090550;28;20485;-62
2021/08/10 01:58:43;;;;;;;7.43;6.72;;;;;;;18.58;61.42;93773.81;5090567;28;20501;-62
2021/08/10 02:01:08;;;;;;;7.60;6.80;;;;;;;18.65;61.42;93767.34;5089458;28;20039;-63
2021/08/10 02:03:34;;;;;;;9.50;6.95;;;;;;;18.57;61.64;93768.84;5090765;28;20031;-62
2021/08/10 02:05:59;;;;;;;7.25;6.53;;;;;;;18.58;62.09;93764.72;5089563;28;20416;-63
2021/08/10 02:08:26;;;;;;;6.32;5.82;;;;;;;18.60;61.75;93764.88;5089514;28;20471;-62
2021/08/10 02:10:52;;;;;;;8.07;6.30;;;;;;;18.55;62.17;93771.50;5089222;28;20489;-62
2021/08/10 02:13:17;;;;;;;7.07;6.03;;;;;;;18.60;61.76;93768.38;5089244;28;20030;-62
2021/08/10 02:15:44;;;;;;;8.35;6.45;;;;;;;18.53;62.08;93774.91;5090587;28;20020;-63
2021/08/10 02:18:10;;;;;;;7.32;6.65;;;;;;;18.53;61.62;93774.91;5090628;28;20032;-63
2021/08/10 02:20:37;;;;;;;8.23;6.45;;;;;;;18.39;61.39;93762.69;5090582;28;20102;-63
2021/08/10 02:23:03;;;;;;;11.25;6.95;;;;;;;18.55;61.17;93779.88;5089352;28;20075;-63
2021/08/10 02:25:29;;;;;;;9.93;6.80;;;;;;;18.52;61.45;93778.25;5090129;28;20035;-63
2021/08/10 02:28:01;;;;;;;7.03;6.35;;;;;;;18.51;61.59;93771.22;5090475;28;20036;-63
2021/08/10 02:30:31;;;;;;;9.05;6.57;;;;;;;18.50;61.64;93781.66;5089234;28;20028;-62
2021/08/10 02:32:58;;;;;;;8.85;6.65;;;;;;;18.49;61.91;93785.06;5091539;28;20057;-60
2021/08/10 02:35:27;;;;;;;7.07;6.28;;;;;;;18.39;62.30;93792.69;5093498;28;20020;-63
2021/08/10 02:37:57;;;;;;;7.32;6.63;;;;;;;18.36;62.56;93786.25;5094603;28;20023;-63
2021/08/10 02:40:24;;;;;;;8.20;6.40;;;;;;;18.43;62.35;93788.13;5112939;28;20030;-62
2021/08/10 02:42:53;;;;;;;6.85;6.10;;;;;;;18.42;62.13;93780.34;5113809;28;20089;-62
2021/08/10 02:45:19;;;;;;;7.35;6.47;;;;;;;18.45;62.49;93788.28;5113421;28;20492;-62
2021/08/10 02:47:53;;;;;;;8.55;6.25;;;;;;;18.42;62.84;93780.34;5114778;28;20030;-62
2021/08/10 02:50:19;;;;;;;9.93;6.70;;;;;;;18.41;62.56;93782.38;5114830;28;20023;-60
2021/08/10 02:52:44;;;;;;;7.75;6.30;;;;;;;18.31;62.73;93764.91;5114669;28;20034;-61
2021/08/10 02:55:10;;;;;;;7.45;6.50;;;;;;;18.48;62.54;93780.78;5114718;28;20019;-63
2021/08/10 02:57:48;;;;;;;7.10;6.35;;;;;;;18.44;62.04;93788.84;5113436;28;20492;-64
2021/08/10 03:00:14;;;;;;;8.07;6.85;;;;;;;18.00;62.76;93795.56;5114370;28;20671;-63
2021/08/10 03:02:46;;;;;;;8.50;7.22;;;;;;;17.74;63.95;93793.66;5113360;28;20069;-62
2021/08/10 03:05:16;;;;;;;11.85;7.68;;;;;;;17.74;64.45;93793.66;5113057;28;20015;-63
2021/08/10 03:08:07;;;;;;;8.98;7.60;;;;;;;17.74;64.74;93790.09;5111783;28;20011;-61
2021/08/10 03:10:33;;;;;;;13.57;7.32;;;;;;;17.90;64.69;93782.91;5114453;28;20084;-62
2021/08/10 03:13:05;;;;;;;9.45;7.03;;;;;;;18.05;64.13;93793.78;5114248;28;20427;-62
2021/08/10 03:15:32;;;;;;;10.10;6.97;;;;;;;18.09;63.71;93794.06;5113960;28;20023;-61
2021/08/10 03:18:02;;;;;;;10.20;7.10;;;;;;;18.08;63.98;93793.34;5113139;28;20484;-61
2021/08/10 03:20:29;;;;;;;7.82;6.07;;;;;;;18.12;63.58;93792.91;5113887;28;20027;-59
2021/08/10 03:22:56;;;;;;;17.00;6.75;;;;;;;18.08;64.11;93796.13;5112622;28;20400;-58
2021/08/10 03:25:22;;;;;;;81.57;12.00;;;;;;;18.09;64.04;93791.28;5111506;28;20436;-58
2021/08/10 03:27:49;;;;;;;33.47;7.78;;;;;;;18.14;64.03;93802.16;5109182;28;20069;-58
2021/08/10 03:30:15;;;;;;;10.10;7.45;;;;;;;18.22;63.82;93802.00;5112467;28;20086;-57
2021/08/10 03:32:41;;;;;;;10.73;7.90;;;;;;;18.13;64.29;93803.47;5110753;28;20035;-58
2021/08/10 03:35:07;;;;;;;10.63;6.90;;;;;;;18.18;63.62;93808.03;5111713;28;20086;-59
2021/08/10 03:37:33;;;;;;;9.48;6.57;;;;;;;18.07;63.90;93803.06;5112080;28;20602;-58
2021/08/10 03:39:59;;;;;;;6.97;6.20;;;;;;;18.03;64.19;93808.34;5097368;28;20114;-60
2021/08/10 03:42:25;;;;;;;7.53;6.82;;;;;;;18.10;63.96;93796.25;5090903;28;20031;-62
2021/08/10 03:44:51;;;;;;;8.88;7.25;;;;;;;18.15;63.80;93808.47;5089757;28;20578;-62
2021/08/10 03:47:17;;;;;;;8.55;7.43;;;;;;;18.07;63.78;93797.47;5091135;28;20465;-61
2021/08/10 03:49:46;;;;;;;8.77;7.00;;;;;;;18.10;63.90;93807.44;5093294;28;20492;-61
2021/08/10 03:52:13;;;;;;;8.02;6.65;;;;;;;18.09;63.99;93808.03;5092897;28;20512;-61
2021/08/10 03:54:41;;;;;;;8.50;6.75;;;;;;;18.07;63.86;93803.06;5091718;28;20028;-60
2021/08/10 03:57:07;;;;;;;12.70;6.97;;;;;;;18.13;64.10;93811.13;5091613;28;20537;-62
2021/08/10 03:59:36;;;;;;;27.98;8.13;;;;;;;18.07;64.04;93800.25;5092996;28;20019;-62
2021/08/10 04:02:01;;;;;;;;;;;;;;;17.98;64.56;93806.59;5093556;28;20115;-62
2021/08/10 04:04:27;;;;;;;79.82;17.95;;;;;;;17.95;64.42;93812.63;5091405;28;19944;-62
2021/08/10 04:06:53;;;;;;;35.88;10.02;;;;;;;18.03;64.33;93805.56;5091279;28;20119;-61
2021/08/10 04:09:21;;;;;;;37.92;9.43;;;;;;;18.10;64.54;93806.72;5097235;28;20068;-61
2021/08/10 04:11:47;;;;;;;13.93;7.55;;;;;;;18.08;64.30;93810.09;5112845;28;20031;-59
2021/08/10 04:14:13;;;;;;;12.65;7.75;;;;;;;18.13;64.26;93813.91;5113055;28;20027;-59
2021/08/10 04:16:54;;;;;;;9.00;6.82;;;;;;;18.11;64.65;93817.31;5112734;28;20026;-59
2021/08/10 04:19:21;;;;;;;7.90;7.10;;;;;;;18.10;64.53;93817.91;5111628;28;20028;-61
2021/08/10 04:21:47;;;;;;;7.80;6.85;;;;;;;18.16;64.31;93819.09;5112933;28;20531;-62
2021/08/10 04:24:12;;;;;;;80.05;13.70;;;;;;;18.14;64.74;93823.78;5105519;28;20031;-61
2021/08/10 04:26:38;;;;;;;15.93;7.78;;;;;;;18.23;64.15;93819.50;5091835;28;20052;-61
2021/08/10 04:29:04;;;;;;;17.38;7.82;;;;;;;18.18;64.80;93804.50;5092096;28;20039;-60
2021/08/10 04:31:30;;;;;;;7.72;6.90;;;;;;;18.23;64.47;93819.50;5092113;28;20051;-61
2021/08/10 04:33:56;;;;;;;12.18;7.80;;;;;;;18.23;64.88;93820.25;5095726;28;20034;-60
2021/08/10 04:36:21;;;;;;;10.45;7.22;;;;;;;18.39;64.54;93820.66;5110925;28;20027;-61
2021/08/10 04:38:47;;;;;;;9.75;6.65;;;;;;;18.38;64.50;93814.34;5112585;28;20110;-58
2021/08/10 04:41:12;;;;;;;8.38;6.50;;;;;;;18.42;65.03;93813.88;5111096;28;20605;-58
2021/08/10 04:43:37;;;;;;;8.23;7.43;;;;;;;18.46;64.33;93820.53;5110744;28;20111;-59
2021/08/10 04:46:03;;;;;;;10.00;7.55;;;;;;;18.49;64.05;93813.75;5110918;28;20059;-58
2021/08/10 04:48:28;;;;;;;9.35;6.93;;;;;;;18.49;64.30;93815.81;5110917;28;20026;-61
2021/08/10 04:50:54;;;;;;;12.70;7.63;;;;;;;18.55;63.37;93811.38;5110668;28;20031;-61
2021/08/10 04:53:19;;;;;;;12.10;7.38;;;;;;;18.59;63.23;93817.25;5110877;28;20039;-59
2021/08/10 04:55:45;;;;;;;21.48;7.72;;;;;;;18.62;63.14;93818.88;5110721;28;20031;-59
2021/08/10 04:58:11;;;;;;;12.48;8.00;;;;;;;18.66;63.03;93815.63;5112316;28;20031;-59
2021/08/10 05:00:36;;;;;;;49.90;14.75;;;;;;;18.75;63.27;93828.84;5111734;28;20039;-58
2021/08/10 05:03:02;;;;;;;25.42;12.95;;;;;;;18.68;64.04;93813.69;5111635;28;20031;-58
2021/08/10 05:05:27;;;;;;;23.42;13.40;;;;;;;18.79;63.92;93812.34;5109857;28;20027;-59
2021/08/10 05:07:53;;;;;;;16.05;10.80;;;;;;;18.85;63.98;93821.16;5100738;28;20028;-59
2021/08/10 05:10:18;;;;;;;38.42;16.85;;;;;;;18.96;63.94;93814.91;5091731;28;20024;-59
2021/08/10 05:12:44;;;;;;;68.93;21.45;;;;;;;19.13;64.05;93811.16;5091631;28;20023;-60
2021/08/10 05:15:10;;;;;;;20.48;12.38;;;;;;;19.20;63.61;93816.59;5091365;28;20413;-60
2021/08/10 05:17:35;;;;;;;20.35;12.52;;;;;;;19.30;63.94;93813.72;5091181;28;20024;-60
2021/08/10 05:20:01;;;;;;;17.05;11.15;;;;;;;19.36;63.41;93817.69;5091671;28;20024;-60
2021/08/10 05:22:26;;;;;;;18.15;11.55;;;;;;;19.47;63.26;93821.91;5091102;28;20031;-59
2021/08/10 05:24:52;;;;;;;21.55;10.70;;;;;;;19.52;63.42;93824.38;5090832;28;20024;-59
2021/08/10 05:27:17;;;;;;;12.57;9.93;;;;;;;19.67;63.40;93821.19;5090893;28;20040;-60
2021/08/10 05:29:43;;;;;;;17.05;9.65;;;;;;;19.72;63.76;93825.00;5091278;28;20016;-60
2021/08/10 05:32:08;;;;;;;18.85;9.73;;;;;;;19.79;62.71;93824.06;5091058;28;20023;-62
2021/08/10 05:34:34;;;;;;;19.90;9.57;;;;;;;19.84;62.70;93833.47;5091281;28;20035;-61
2021/08/10 05:37:00;;;;;;;20.35;9.38;;;;;;;19.97;62.43;93838.53;5091294;28;20062;-61
2021/08/10 05:39:25;;;;;;;16.88;9.57;;;;;;;20.00;62.47;93835.25;5101180;28;20484;-62
2021/08/10 05:41:51;;;;;;;16.58;9.25;;;;;;;20.07;62.56;93837.13;5111173;28;20023;-61
2021/08/10 05:44:16;;;;;;;14.10;9.10;;;;;;;20.15;62.54;93829.25;5111161;28;20031;-62
2021/08/10 05:46:42;;;;;;;15.57;10.20;;;;;;;20.27;62.41;93837.75;5111045;28;20080;-61
2021/08/10 05:49:08;;;;;;;14.40;9.73;;;;;;;20.37;62.00;93827.91;5111388;28;20027;-61
2021/08/10 05:51:34;;;;;;;13.70;9.00;;;;;;;20.49;62.71;93830.72;5111039;28;20019;-61
2021/08/10 05:53:59;;;;;;;19.20;9.07;;;;;;;20.60;61.74;93834.91;5111084;28;20031;-61
2021/08/10 05:56:25;;;;;;;15.93;8.95;;;;;;;20.65;61.24;93831.75;5111302;28;20008;-61
2021/08/10 05:58:50;;;;;;;15.20;10.10;;;;;;;20.70;60.87;93833.47;5110981;28;20389;-60
2021/08/10 06:01:17;;;;;;;13.43;9.13;;;;;;;20.85;61.16;93833.03;5111083;28;20096;-61
2021/08/10 06:03:43;;;;;;;14.77;8.82;;;;;;;20.95;61.29;93835.72;5110867;28;20546;-60
2021/08/10 06:06:08;;;;;;;14.55;9.10;;;;;;;21.05;62.67;93827.94;5111078;28;20098;-60
2021/08/10 06:08:34;;;;;;;16.80;8.73;;;;;;;21.21;61.70;93831.72;5110746;28;20022;-60
2021/08/10 06:10:59;;;;;;;10.88;8.55;;;;;;;21.26;60.90;93829.91;5111183;28;20416;-61
2021/08/10 06:13:25;;;;;;;10.05;7.75;;;;;;;21.35;60.47;93832.59;5110721;28;20416;-60
2021/08/10 06:15:50;;;;;;;20.50;15.73;;;;;;;21.47;60.75;93826.97;5110731;28;20024;-59
2021/08/10 06:18:17;;;;;;;11.95;10.02;;;;;;;21.55;60.15;93827.47;5110663;28;20023;-59
2021/08/10 06:20:42;;;;;;;18.98;8.85;;;;;;;21.63;60.29;93811.81;5110583;28;20019;-61
2021/08/10 06:23:08;;;;;;;10.85;7.35;;;;;;;21.91;59.32;93820.44;5110909;28;20023;-61
2021/08/10 06:25:33;;;;;;;15.38;10.35;;;;;;;22.08;60.66;93822.84;5093511;28;20404;-60
2021/08/10 06:28:00;;;;;;;12.27;7.80;;;;;;;22.15;59.45;93807.78;5090284;28;20048;-60
2021/08/10 06:30:26;;;;;;;10.07;6.93;;;;;;;22.39;59.05;93815.50;5090392;28;20039;-64
2021/08/10 06:32:51;;;;;;;12.70;6.35;;;;;;;22.69;56.69;93810.84;5090568;28;20024;-61
2021/08/10 06:35:16;;;;;;;10.05;6.35;;;;;;;22.93;56.54;93814.25;5090175;28;20020;-65
2021/08/10 06:37:42;;;;;;;6.72;6.05;;;;;;;23.13;56.74;93807.63;5090453;28;20024;-61
2021/08/10 06:40:08;;;;;;;9.35;7.22;;;;;;;23.33;55.17;93811.53;5089951;28;20050;-59
2021/08/10 06:42:33;;;;;;;6.60;5.80;;;;;;;23.45;50.56;93800.16;5090366;28;20020;-63
2021/08/10 06:45:00;;;;;;;25.92;7.20;;;;;;;23.61;51.53;93806.63;5090208;28;20020;-62
2021/08/10 06:47:25;;;;;;;12.85;7.05;;;;;;;23.81;52.02;93802.03;5090259;28;20024;-63
2021/08/10 06:49:51;;;;;;;7.47;6.35;;;;;;;24.00;49.98;93795.94;5090114;28;20048;-60
2021/08/10 06:52:16;;;;;;;10.40;6.28;;;;;;;24.12;52.50;93798.66;5089999;28;20024;-63
2021/08/10 06:54:41;;;;;;;7.10;6.00;;;;;;;24.25;50.60;93797.91;5089988;28;20024;-63
2021/08/10 06:57:07;;;;;;;9.13;6.07;;;;;;;24.49;49.33;93801.16;5088833;28;20021;-64
2021/08/10 06:59:37;;;;;;;8.75;6.25;;;;;;;24.75;48.39;93803.16;5105938;28;20016;-60
2021/08/10 07:02:06;;;;;;;11.57;6.03;;;;;;;24.90;47.50;93796.09;5108110;28;20471;-53
2021/08/10 07:04:32;;;;;;;7.93;6.10;;;;;;;24.99;46.91;93800.00;5108062;28;20095;-55
2021/08/10 07:07:01;;;;;;;7.43;5.50;;;;;;;25.19;47.04;93792.44;5107960;28;20027;-57
2021/08/10 07:09:26;;;;;;;7.28;6.40;;;;;;;25.40;44.64;93800.47;5108218;28;20416;-55
2021/08/10 07:11:52;;;;;;;8.77;5.80;;;;;;;25.47;44.05;93797.28;5105917;28;20030;-50
2021/08/10 07:14:18;;;;;;;7.07;6.15;;;;;;;25.63;44.02;93799.38;5108135;28;20030;-52
2021/08/10 07:16:44;;;;;;;9.38;5.82;;;;;;;25.78;43.85;93798.63;5108046;28;20015;-49
2021/08/10 07:19:12;;;;;;;11.52;6.53;;;;;;;26.19;40.97;93799.00;5109223;28;20027;-51
2021/08/10 07:21:38;;;;;;;15.00;6.07;;;;;;;26.55;42.38;93794.09;5092348;28;20020;-51
2021/08/10 07:24:04;;;;;;;9.77;5.95;;;;;;;26.74;40.10;93782.88;5093927;28;20023;-45
2021/08/10 07:26:29;;;;;;;11.15;5.93;;;;;;;27.05;39.66;93793.25;5110612;28;20039;-48
2021/08/10 07:28:55;;;;;;;11.43;6.47;;;;;;;27.45;38.12;93780.63;5110709;28;20015;-47
2021/08/10 07:31:21;;;;;;;9.70;6.20;;;;;;;27.71;39.18;93783.69;5110816;28;20023;-46
2021/08/10 07:33:46;;;;;;;17.40;5.97;;;;;;;28.00;38.07;93780.50;5110745;28;20023;-46
2021/08/10 07:36:11;;;;;;;7.03;5.80;;;;;;;28.36;37.30;93775.28;5110984;28;20022;-46
2021/08/10 07:38:37;;;;;;;18.38;7.70;;;;;;;28.99;36.00;93783.72;5101826;28;20024;-46
2021/08/10 07:41:03;;;;;;;9.95;5.75;;;;;;;29.91;33.07;93783.63;5110552;28;20020;-47
2021/08/10 07:43:28;;;;;;;6.75;5.55;;;;;;;31.29;30.12;93779.97;5110564;28;20032;-46
2021/08/10 07:45:54;;;;;;;5.35;4.88;;;;;;;33.08;26.60;93784.78;5110046;28;20504;-46
2021/08/10 07:48:19;;;;;;;7.60;5.03;;;;;;;34.34;25.94;93783.59;5110216;28;20050;-49
2021/08/10 07:50:48;;;;;;;8.18;5.13;;;;;;;34.83;23.37;93781.91;5110404;28;20023;-51
2021/08/10 07:53:14;;;;;;;8.32;4.85;;;;;;;35.26;23.07;93782.97;5110585;28;20020;-47
2021/08/10 07:55:39;;;;;;;6.30;5.13;;;;;;;36.83;21.77;93786.50;5092747;28;20516;-50
2021/08/10 07:58:05;;;;;;;1999.90;999.90;;;;;;;38.46;19.98;93777.53;5089453;28;20027;-49
2021/08/10 08:00:30;;;;;;;1999.90;999.90;;;;;;;39.94;17.99;93788.56;5089780;28;20032;-47
2021/08/10 08:02:55;;;;;;;1999.90;999.90;;;;;;;40.79;16.80;93785.31;5090007;28;20035;-47
2021/08/10 08:05:21;;;;;;;1999.90;999.90;;;;;;;40.88;16.56;93795.34;5089695;28;20509;-48
2021/08/10 08:07:46;;;;;;;1999.90;999.90;;;;;;;41.97;15.77;93779.72;5089690;28;20127;-46
2021/08/10 08:10:12;;;;;;;1999.90;999.90;;;;;;;42.74;15.43;93783.91;5089442;28;20024;-50
2021/08/10 08:12:38;;;;;;;1999.90;999.90;;;;;;;42.95;14.44;93785.63;5088655;28;20031;-48
2021/08/10 08:15:05;;;;;;;1999.90;999.90;;;;;;;42.81;14.07;93783.03;5089785;28;20028;-46
2021/08/10 08:17:30;;;;;;;1999.90;999.90;;;;;;;42.22;14.76;93785.75;5090047;28;20031;-48
2021/08/10 08:19:56;;;;;;;1999.90;999.90;;;;;;;42.26;14.71;93785.66;5089485;28;20413;-48
2021/08/10 08:22:21;;;;;;;1999.90;999.90;;;;;;;42.50;14.58;93779.38;5089382;28;20119;-54
2021/08/10 08:24:47;;;;;;;1999.90;999.90;;;;;;;42.25;14.98;93790.78;5088907;28;20034;-49
2021/08/10 08:27:12;;;;;;;1999.90;999.90;;;;;;;42.08;13.66;93783.16;5089588;28;20109;-47
2021/08/10 08:29:38;;;;;;;1999.90;999.90;;;;;;;42.12;14.77;93783.78;5089472;28;20036;-45
2021/08/10 08:32:06;;;;;;;1999.90;999.90;;;;;;;41.49;15.07;93790.00;5089100;28;20089;-52
2021/08/10 08:34:31;;;;;;;1999.90;999.90;;;;;;;41.61;15.20;93789.06;5088890;28;20028;-49
2021/08/10 08:36:57;;;;;;;1999.90;999.90;;;;;;;41.61;14.91;93782.56;5088763;28;20039;-46
2021/08/10 08:39:22;;;;;;;1999.90;999.90;;;;;;;42.08;14.74;93783.84;5099367;28;20027;-47
2021/08/10 08:41:50;;;;;;;1999.90;999.90;;;;;;;42.95;14.02;93776.91;5096939;28;20036;-47
2021/08/10 08:44:20;;;;;;;1999.90;999.90;;;;;;;43.27;12.94;93780.53;5094635;28;20031;-47
2021/08/10 08:46:47;;;;;;;1999.90;999.90;;;;;;;43.76;13.27;93777.81;5096964;28;20544;-48
2021/08/10 08:49:14;;;;;;;1999.90;999.90;;;;;;;44.35;11.94;93786.38;5096500;28;20028;-48
2021/08/10 08:51:44;;;;;;;1999.90;999.90;;;;;;;44.77;12.27;93780.78;5096466;28;20039;-49
2021/08/10 08:54:10;;;;;;;1999.90;999.90;;;;;;;45.07;12.09;93779.84;5097478;28;20404;-49
2021/08/10 08:56:35;;;;;;;1999.90;999.90;;;;;;;45.26;12.12;93771.97;5097424;28;20076;-51
2021/08/10 08:59:03;;;;;;;1999.90;999.90;;;;;;;45.20;11.90;93772.16;5095958;28;20040;-50
2021/08/10 09:01:28;;;;;;;1999.90;999.90;;;;;;;44.77;11.28;93772.03;5096873;28;20028;-46
2021/08/10 09:03:54;;;;;;;1999.90;999.90;;;;;;;45.21;11.78;93782.31;5095913;28;20549;-45
2021/08/10 09:06:21;;;;;;;1999.90;999.90;;;;;;;44.98;11.68;93773.56;5098367;28;20035;-48
2021/08/10 09:08:47;;;;;;;1999.90;999.90;;;;;;;45.79;11.04;93774.53;5096626;28;20665;-48
2021/08/10 09:11:17;;;;;;;1999.90;999.90;;;;;;;45.70;10.52;93773.38;5096872;28;20518;-48
2021/08/10 09:14:03;;;;;;;1940.75;999.90;;;;;;;46.15;10.39;93771.84;5096498;28;20023;-46
2021/08/10 09:16:28;;;;;;;1999.90;999.90;;;;;;;45.57;11.01;93775.31;5098548;28;20038;-47
2021/08/10 09:18:54;;;;;;;1976.63;999.90;;;;;;;46.07;10.97;93766.31;5096350;28;20414;-47
2021/08/10 09:21:22;;;;;;;1999.90;999.90;;;;;;;45.54;10.95;93756.44;5106782;28;20107;-48
2021/08/10 09:23:49;;;;;;;1999.90;999.90;;;;;;;45.30;11.17;93766.00;5098372;28;20047;-46
2021/08/10 09:26:30;;;;;;;1999.90;999.90;;;;;;;45.45;11.82;93763.31;5100276;28;20086;-49
2021/08/10 09:28:58;;;;;;;1999.90;999.90;;;;;;;46.03;11.53;93763.50;5103816;28;20024;-49
2021/08/10 09:31:35;;;;;;;1999.90;999.90;;;;;;;45.98;11.06;93744.75;5099548;28;20515;-46
2021/08/10 09:34:30;;;;;;;1999.90;999.90;;;;;;;45.69;10.71;93760.31;5097204;28;20020;-50
2021/08/10 09:36:56;;;;;;;1999.90;999.90;;;;;;;46.45;10.88;93756.13;5098776;28;20409;-47
2021/08/10 09:39:32;;;;;;;1999.90;999.90;;;;;;;46.76;10.30;93749.84;5099010;28;20058;-45
2021/08/10 09:42:12;;;;;;;1999.90;999.90;;;;;;;46.47;10.30;93739.25;5096031;28;20027;-52
2021/08/10 09:45:00;;;;;;;1897.97;999.90;;;;;;;46.53;10.63;93735.38;5096519;28;20035;-48
2021/08/10 09:47:30;;;;;;;1999.90;999.90;;;;;;;46.42;10.74;93729.22;5097520;28;20035;-48
2021/08/10 09:49:56;;;;;;;1921.40;999.90;;;;;;;46.08;10.13;93735.59;5098755;28;20070;-48
2021/08/10 09:52:29;;;;;;;1906.72;999.90;;;;;;;46.97;10.13;93736.56;5097116;28;20020;-48
2021/08/10 09:54:56;;;;;;;1925.55;999.90;;;;;;;47.68;9.87;93730.72;5098564;28;20511;-48
2021/08/10 09:57:21;;;;;;;1999.90;999.90;;;;;;;47.66;9.69;93728.59;5095240;28;20020;-48
2021/08/10 09:59:47;;;;;;;1999.90;999.90;;;;;;;47.22;9.50;93730.44;5095874;28;20036;-48
2021/08/10 10:02:21;;;;;;;1902.85;999.90;;;;;;;47.48;9.78;93722.84;5098194;28;20069;-48
2021/08/10 10:04:54;;;;;;;1912.68;999.90;;;;;;;47.31;9.44;93733.75;5094315;28;20019;-46
2021/08/10 10:07:20;;;;;;;1991.38;999.90;;;;;;;47.55;9.38;93727.63;5096600;28;20024;-46
2021/08/10 10:09:46;;;;;;;1978.03;999.90;;;;;;;47.70;9.40;93725.50;5097236;28;20030;-47
2021/08/10 10:12:12;;;;;;;1944.90;999.90;;;;;;;47.67;9.03;93726.38;5097225;28;20073;-49
2021/08/10 10:14:41;;;;;;;1952.82;999.90;;;;;;;47.88;9.03;93721.09;5095344;28;20031;-48
2021/08/10 10:17:10;;;;;;;1999.90;999.90;;;;;;;47.59;9.37;93709.88;5096218;28;20404;-48
2021/08/10 10:19:37;;;;;;;1999.72;999.90;;;;;;;47.29;9.94;93693.59;5098440;28;20110;-50
2021/08/10 10:22:05;;;;;;;1939.35;999.90;;;;;;;47.88;9.59;93715.25;5098724;28;20024;-55
2021/08/10 10:24:40;;;;;;;1999.90;999.90;;;;;;;48.27;8.98;93717.16;5098192;28;20039;-51
2021/08/10 10:27:07;;;;;;;1962.88;999.90;;;;;;;48.01;9.08;93719.03;5106969;28;20126;-47
2021/08/10 10:29:33;;;;;;;1999.90;999.90;;;;;;;48.14;9.29;93719.94;5107272;28;20397;-49
2021/08/10 10:31:59;;;;;;;1892.28;999.90;;;;;;;48.19;8.72;93712.41;5107420;28;20080;-48
2021/08/10 10:34:25;;;;;;;1870.13;999.90;;;;;;;47.65;9.30;93706.69;5107126;28;20019;-48
2021/08/10 10:36:51;;;;;;;1995.10;999.90;;;;;;;47.68;9.25;93698.53;5107287;28;20378;-52
2021/08/10 10:39:27;;;;;;;1999.90;999.90;;;;;;;46.75;10.63;93707.50;5098039;28;20031;-50
2021/08/10 10:42:01;;;;;;;1999.90;999.90;;;;;;;47.07;9.80;93703.28;5085929;28;20020;-55
2021/08/10 10:44:43;;;;;;;1999.90;999.90;;;;;;;46.79;10.00;93702.22;5103352;28;20035;-57
2021/08/10 10:47:24;;;;;;;1999.90;999.90;;;;;;;47.23;10.61;93702.63;5107465;28;20044;-55
2021/08/10 10:49:58;;;;;;;1999.90;999.90;;;;;;;47.75;9.56;93702.66;5107343;28;20040;-50
2021/08/10 10:52:24;;;;;;;1948.30;999.90;;;;;;;47.91;9.38;93696.78;5107215;28;20032;-57
2021/08/10 10:54:49;;;;;;;1999.90;999.90;;;;;;;47.16;9.84;93704.38;5111218;28;20085;-57
2021/08/10 10:57:33;;;;;;;1999.90;999.90;;;;;;;46.63;10.45;93691.16;5111036;28;20031;-57
2021/08/10 11:00:04;;;;;;;1999.90;999.90;;;;;;;46.01;11.03;93702.28;5111010;28;20023;-57
2021/08/10 11:02:36;;;;;;;1999.90;999.90;;;;;;;46.42;10.58;93699.28;5111581;28;20467;-56
2021/08/10 11:05:08;;;;;;;1999.90;999.90;;;;;;;46.22;10.83;93700.03;5111608;28;20054;-58
2021/08/10 11:07:43;;;;;;;1999.90;999.90;;;;;;;46.42;11.02;93694.16;5111488;28;20412;-57
2021/08/10 11:10:11;;;;;;;1999.90;999.90;;;;;;;46.74;9.93;93695.09;5111546;28;20031;-56
2021/08/10 11:12:42;;;;;;;1999.90;999.90;;;;;;;46.11;10.62;93690.25;5110227;28;20608;-57
2021/08/10 11:15:12;;;;;;;1999.90;999.90;;;;;;;45.83;11.21;93675.16;5110856;28;20565;-56
2021/08/10 11:17:39;;;;;;;1999.90;999.90;;;;;;;45.65;11.24;93681.69;5111236;28;20075;-58
2021/08/10 11:20:26;;;;;;;1999.90;999.90;;;;;;;44.62;11.79;93683.66;5110721;28;20024;-52
2021/08/10 11:23:20;;;;;;;1999.90;999.90;;;;;;;44.51;11.98;93682.56;5110879;28;20049;-56